createdAt,value
2022-07-25T00:01:52.344Z,38.63
2022-07-25T00:04:39.719Z,38.68
2022-07-25T00:07:27.800Z,38.77
2022-07-25T00:10:14.764Z,38.72
2022-07-25T00:13:01.861Z,38.69
2022-07-25T00:15:48.883Z,39.01
2022-07-25T00:18:35.958Z,38.87
2022-07-25T00:21:22.882Z,38.81
2022-07-25T00:24:10.430Z,38.90
2022-07-25T00:26:57.570Z,39.05
2022-07-25T00:29:44.596Z,38.91
2022-07-25T00:32:31.535Z,39.07
2022-07-25T00:35:18.441Z,39.07
2022-07-25T00:38:05.403Z,38.97
2022-07-25T00:40:54.606Z,38.94
2022-07-25T00:43:44.525Z,39.02
2022-07-25T00:46:31.534Z,38.98
2022-07-25T00:49:18.983Z,39.06
2022-07-25T00:52:06.209Z,39.10
2022-07-25T00:54:53.257Z,38.98
2022-07-25T00:57:40.645Z,39.14
2022-07-25T01:00:27.775Z,39.21
2022-07-25T01:03:15.300Z,38.99
2022-07-25T01:06:03.096Z,39.09
2022-07-25T01:08:50.206Z,38.99
2022-07-25T01:11:37.581Z,39.37
2022-07-25T01:14:24.557Z,39.24
2022-07-25T01:17:13.377Z,39.38
2022-07-25T01:20:00.297Z,39.45
2022-07-25T01:22:47.996Z,39.06
2022-07-25T01:25:35.013Z,39.62
2022-07-25T01:28:22.028Z,39.44
2022-07-25T01:31:08.977Z,39.60
2022-07-25T01:33:56.143Z,39.47
2022-07-25T01:36:43.083Z,39.71
2022-07-25T01:39:30.050Z,39.66
2022-07-25T01:42:17.097Z,39.66
2022-07-25T01:45:05.112Z,39.47
2022-07-25T01:47:52.174Z,39.46
2022-07-25T01:50:39.141Z,39.47
2022-07-25T01:53:26.119Z,39.60
2022-07-25T01:56:13.182Z,39.83
2022-07-25T01:59:00.129Z,39.60
2022-07-25T02:01:47.199Z,39.59
2022-07-25T02:04:35.777Z,39.74
2022-07-25T02:07:22.803Z,39.67
2022-07-25T02:10:10.136Z,39.94
2022-07-25T02:12:57.301Z,39.91
2022-07-25T02:15:44.480Z,39.98
2022-07-25T02:18:31.410Z,39.94
2022-07-25T02:21:18.375Z,39.74
2022-07-25T02:24:05.854Z,39.89
2022-07-25T02:26:53.250Z,40.06
2022-07-25T02:29:40.191Z,40.08
2022-07-25T02:32:27.192Z,40.00
2022-07-25T02:35:14.093Z,40.20
2022-07-25T02:38:01.045Z,40.00
2022-07-25T02:40:49.525Z,40.21
2022-07-25T02:43:36.489Z,39.98
2022-07-25T02:46:24.372Z,39.97
2022-07-25T02:49:11.401Z,40.32
2022-07-25T02:51:58.494Z,40.11
2022-07-25T02:54:45.442Z,40.26
2022-07-25T02:57:32.376Z,40.44
2022-07-25T03:00:19.480Z,40.39
2022-07-25T03:03:06.614Z,40.24
2022-07-25T03:05:53.641Z,40.54
2022-07-25T03:08:40.542Z,40.32
2022-07-25T03:11:27.485Z,40.34
2022-07-25T03:14:14.427Z,40.39
2022-07-25T03:17:01.625Z,40.45
2022-07-25T03:19:48.733Z,40.48
2022-07-25T03:22:35.822Z,40.44
2022-07-25T03:25:22.761Z,40.54
2022-07-25T03:28:09.831Z,40.19
2022-07-25T03:30:56.820Z,40.12
2022-07-25T03:33:44.235Z,40.21
2022-07-25T03:36:31.363Z,40.69
2022-07-25T03:39:18.429Z,40.61
2022-07-25T03:42:05.620Z,40.49
2022-07-25T03:44:52.574Z,40.34
2022-07-25T03:47:39.645Z,40.18
2022-07-25T03:50:26.638Z,40.45
2022-07-25T03:53:13.653Z,40.25
2022-07-25T03:56:00.584Z,40.45
2022-07-25T03:58:47.563Z,40.31
2022-07-25T04:01:35.403Z,40.63
2022-07-25T04:04:22.408Z,40.76
2022-07-25T04:07:09.325Z,40.82
2022-07-25T04:09:57.427Z,40.84
2022-07-25T04:12:44.352Z,40.44
2022-07-25T04:15:31.255Z,40.47
2022-07-25T04:18:20.907Z,40.58
2022-07-25T04:21:12.632Z,40.95
2022-07-25T04:23:59.758Z,40.64
2022-07-25T04:26:46.765Z,40.99
2022-07-25T04:29:33.778Z,40.67
2022-07-25T04:32:23.548Z,41.00
2022-07-25T04:35:10.732Z,40.83
2022-07-25T04:37:57.628Z,40.90
2022-07-25T04:40:44.654Z,40.83
2022-07-25T04:43:31.581Z,40.77
2022-07-25T04:46:20.293Z,40.88
2022-07-25T04:49:07.439Z,40.81
2022-07-25T04:51:54.419Z,40.91
2022-07-25T04:54:41.356Z,40.81
2022-07-25T04:57:28.281Z,40.99
2022-07-25T05:00:16.028Z,40.70
2022-07-25T05:03:03.511Z,40.77
2022-07-25T05:05:51.157Z,40.95
2022-07-25T05:08:38.273Z,41.03
2022-07-25T05:11:25.195Z,40.75
2022-07-25T05:14:13.310Z,40.81
2022-07-25T05:17:00.237Z,40.93
2022-07-25T05:19:47.450Z,40.72
2022-07-25T05:22:34.515Z,40.66
2022-07-25T05:25:21.501Z,40.79
2022-07-25T05:28:08.449Z,40.90
2022-07-25T05:30:56.671Z,41.10
2022-07-25T05:33:43.696Z,40.99
2022-07-25T05:36:30.681Z,40.93
2022-07-25T05:39:17.632Z,41.09
2022-07-25T05:42:04.654Z,40.96
2022-07-25T05:44:51.771Z,40.90
2022-07-25T05:47:39.274Z,40.98
2022-07-25T05:50:26.266Z,41.06
2022-07-25T05:53:13.233Z,41.12
2022-07-25T05:56:00.410Z,41.15
2022-07-25T05:58:47.450Z,40.96
2022-07-25T06:01:34.537Z,40.87
2022-07-25T06:04:26.811Z,40.96
2022-07-25T06:07:16.849Z,40.91
2022-07-25T06:10:05.082Z,40.86
2022-07-25T06:12:52.060Z,40.89
2022-07-25T06:15:39.418Z,40.94
2022-07-25T06:18:27.376Z,40.92
2022-07-25T06:21:14.402Z,40.81
2022-07-25T06:24:01.314Z,40.91
2022-07-25T06:26:48.269Z,40.61
2022-07-25T06:29:35.317Z,40.81
2022-07-25T06:32:22.221Z,40.93
2022-07-25T06:35:09.741Z,40.58
2022-07-25T06:37:56.749Z,40.77
2022-07-25T06:40:43.702Z,40.37
2022-07-25T06:43:30.657Z,40.78
2022-07-25T06:46:17.578Z,40.64
2022-07-25T06:49:04.601Z,40.46
2022-07-25T06:51:51.545Z,40.48
2022-07-25T06:54:38.986Z,40.57
2022-07-25T06:57:25.901Z,40.70
2022-07-25T07:00:14.319Z,40.60
2022-07-25T07:03:03.459Z,40.51
2022-07-25T07:05:50.471Z,40.65
2022-07-25T07:08:38.120Z,40.53
2022-07-25T07:11:25.021Z,40.27
2022-07-25T07:14:12.056Z,40.43
2022-07-25T07:16:58.944Z,40.29
2022-07-25T07:19:46.016Z,40.60
2022-07-25T07:22:33.180Z,40.16
2022-07-25T07:25:21.392Z,40.44
2022-07-25T07:28:08.441Z,39.99
2022-07-25T07:34:02.952Z,40.30
2022-07-25T07:36:49.953Z,40.21
2022-07-25T07:39:36.876Z,39.92
2022-07-25T07:42:23.985Z,40.04
2022-07-25T07:45:11.793Z,39.98
2022-07-25T07:47:58.693Z,39.93
2022-07-25T07:50:45.790Z,39.92
2022-07-25T07:53:51.256Z,39.87
2022-07-25T07:56:38.221Z,39.53
2022-07-25T07:59:25.120Z,39.71
2022-07-25T08:02:12.089Z,39.38
2022-07-25T08:04:59.058Z,39.90
2022-07-25T08:07:46.014Z,39.44
2022-07-25T08:10:36.425Z,39.89
2022-07-25T08:13:25.809Z,39.84
2022-07-25T08:16:13.846Z,39.63
2022-07-25T08:19:00.912Z,39.53
2022-07-25T08:21:47.788Z,39.46
2022-07-25T08:24:34.806Z,39.51
2022-07-25T08:27:21.777Z,39.29
2022-07-25T08:30:10.055Z,39.17
2022-07-25T08:33:00.388Z,39.63
2022-07-25T08:35:49.735Z,39.57
2022-07-25T08:38:36.693Z,39.38
2022-07-25T08:41:24.825Z,39.39
2022-07-25T08:44:14.505Z,39.34
2022-07-25T08:47:02.457Z,39.10
2022-07-25T08:49:49.868Z,39.06
2022-07-25T08:52:37.929Z,39.14
2022-07-25T08:55:25.669Z,39.02
2022-07-25T08:58:14.672Z,39.19
2022-07-25T09:01:02.306Z,38.90
2022-07-25T09:03:49.270Z,38.88
2022-07-25T09:06:36.378Z,38.93
2022-07-25T09:09:33.480Z,38.92
2022-07-25T09:12:27.001Z,38.49
2022-07-25T09:15:33.064Z,38.85
2022-07-25T09:18:25.284Z,38.61
2022-07-25T09:21:14.192Z,38.51
2022-07-25T09:24:18.778Z,38.55
2022-07-25T09:27:12.485Z,38.54
2022-07-25T09:29:59.964Z,38.34
2022-07-25T09:32:46.965Z,38.32
2022-07-25T09:35:38.576Z,38.42
2022-07-25T09:38:25.528Z,38.48
2022-07-25T09:41:12.943Z,38.27
2022-07-25T09:44:00.143Z,38.33
2022-07-25T09:46:47.534Z,38.28
2022-07-25T09:49:42.668Z,38.05
2022-07-25T09:52:29.869Z,37.99
2022-07-25T09:55:16.965Z,38.14
2022-07-25T09:58:04.607Z,38.08
2022-07-25T10:00:56.418Z,38.01
2022-07-25T10:03:53.864Z,37.88
2022-07-25T10:06:49.805Z,37.76
2022-07-25T10:09:48.682Z,37.96
2022-07-25T10:12:38.265Z,37.86
2022-07-25T10:15:25.259Z,37.50
2022-07-25T10:18:13.818Z,37.62
2022-07-25T10:21:28.649Z,37.32
2022-07-25T10:24:16.094Z,37.50
2022-07-25T10:27:09.906Z,37.63
2022-07-25T10:29:57.454Z,37.53
2022-07-25T10:32:50.262Z,37.57
2022-07-25T10:35:37.550Z,37.01
2022-07-25T10:38:25.505Z,37.46
2022-07-25T10:41:19.303Z,36.89
2022-07-25T10:44:13.461Z,37.12
2022-07-25T10:47:07.100Z,37.09
2022-07-25T10:50:25.457Z,36.77
2022-07-25T10:53:09.560Z,36.86
2022-07-25T10:56:05.661Z,36.65
2022-07-25T10:59:01.685Z,36.66
2022-07-25T11:01:50.980Z,36.88
2022-07-25T11:04:38.016Z,36.50
2022-07-25T11:07:25.624Z,36.61
2022-07-25T11:10:12.574Z,36.44
2022-07-25T11:12:59.501Z,36.49
2022-07-25T11:15:46.954Z,36.75
2022-07-25T11:18:36.742Z,36.40
2022-07-25T11:21:23.748Z,36.31
2022-07-25T11:24:10.721Z,36.21
2022-07-25T11:26:57.646Z,36.24
2022-07-25T11:29:44.974Z,35.83
2022-07-25T11:32:46.268Z,36.00
2022-07-25T11:35:33.809Z,36.12
2022-07-25T11:38:20.949Z,35.89
2022-07-25T11:41:08.969Z,35.70
2022-07-25T11:43:55.981Z,35.92
2022-07-25T11:46:44.324Z,35.71
2022-07-25T11:49:31.982Z,35.96
2022-07-25T11:52:25.067Z,35.72
2022-07-25T11:55:17.768Z,35.66
2022-07-25T11:58:05.509Z,35.92
2022-07-25T12:00:52.512Z,35.39
2022-07-25T12:03:40.632Z,35.70
2022-07-25T12:06:30.023Z,35.58
2022-07-25T12:09:19.770Z,35.81
2022-07-25T12:12:07.065Z,35.67
2022-07-25T12:14:53.968Z,35.70
2022-07-25T12:17:41.761Z,35.48
2022-07-25T12:20:34.001Z,35.21
2022-07-25T12:23:23.738Z,35.62
2022-07-25T12:26:13.511Z,35.59
2022-07-25T12:29:00.458Z,35.57
2022-07-25T12:31:47.385Z,35.48
2022-07-25T12:34:34.535Z,35.73
2022-07-25T12:37:21.816Z,35.88
2022-07-25T12:40:09.323Z,35.56
2022-07-25T12:42:57.289Z,35.80
2022-07-25T12:45:44.505Z,35.32
2022-07-25T12:48:31.652Z,35.83
2022-07-25T12:51:18.640Z,35.77
2022-07-25T12:54:05.916Z,35.39
2022-07-25T12:56:53.161Z,35.66
2022-07-25T12:59:40.266Z,35.55
2022-07-25T13:02:27.309Z,35.57
2022-07-25T13:05:14.439Z,35.66
2022-07-25T13:08:04.609Z,35.54
2022-07-25T13:10:51.560Z,35.44
2022-07-25T13:13:38.869Z,35.48
2022-07-25T13:16:25.994Z,35.23
2022-07-25T13:19:13.981Z,35.06
2022-07-25T13:22:00.993Z,35.43
2022-07-25T13:24:47.933Z,35.27
2022-07-25T13:27:34.931Z,35.02
2022-07-25T13:30:22.074Z,34.96
2022-07-25T13:33:10.664Z,34.87
2022-07-25T13:35:57.558Z,35.17
2022-07-25T13:38:46.618Z,34.83
2022-07-25T13:41:33.678Z,34.98
2022-07-25T13:44:20.684Z,34.94
2022-07-25T13:47:07.693Z,34.77
2022-07-25T13:49:54.672Z,35.22
2022-07-25T13:52:41.649Z,35.11
2022-07-25T13:55:28.852Z,34.92
2022-07-25T13:58:16.070Z,35.62
2022-07-25T14:01:03.108Z,35.16
2022-07-25T14:03:50.133Z,35.29
2022-07-25T14:06:37.149Z,35.55
2022-07-25T14:09:24.108Z,35.65
2022-07-25T14:12:11.045Z,35.62
2022-07-25T14:14:57.978Z,35.74
2022-07-25T14:17:45.153Z,35.79
2022-07-25T14:20:32.958Z,36.04
2022-07-25T14:23:19.866Z,35.86
2022-07-25T14:26:06.930Z,35.91
2022-07-25T14:28:55.823Z,36.32
2022-07-25T14:31:42.932Z,36.30
2022-07-25T14:34:30.037Z,36.61
2022-07-25T14:37:17.075Z,36.21
2022-07-25T14:40:05.742Z,36.67
2022-07-25T14:42:53.373Z,36.73
2022-07-25T14:45:41.502Z,36.63
2022-07-25T14:48:28.714Z,36.80
2022-07-25T14:51:17.641Z,36.99
2022-07-25T14:54:04.736Z,36.91
2022-07-25T14:56:51.677Z,36.84
2022-07-25T14:59:38.666Z,37.19
2022-07-25T15:02:25.648Z,37.12
2022-07-25T15:05:12.715Z,37.43
2022-07-25T15:07:59.705Z,37.40
2022-07-25T15:10:47.038Z,37.34
2022-07-25T15:13:34.029Z,37.53
2022-07-25T15:16:21.021Z,37.46
2022-07-25T15:19:16.990Z,37.50
2022-07-25T15:22:04.465Z,37.87
2022-07-25T15:25:23.008Z,37.62
2022-07-25T15:27:59.254Z,37.76
2022-07-25T15:30:48.084Z,37.83
2022-07-25T15:33:35.103Z,37.81
2022-07-25T15:36:25.923Z,37.47
2022-07-25T15:39:15.825Z,38.09
2022-07-25T15:42:02.721Z,37.80
2022-07-25T15:44:56.023Z,37.61
2022-07-25T15:47:56.697Z,37.81
2022-07-25T15:50:49.586Z,38.03
2022-07-25T15:53:36.551Z,38.15
2022-07-25T15:56:24.172Z,38.06
2022-07-25T15:59:11.094Z,37.65
2022-07-25T16:01:58.461Z,38.20
2022-07-25T16:04:45.419Z,38.07
2022-07-25T16:07:32.390Z,37.74
2022-07-25T16:10:19.592Z,37.81
2022-07-25T16:13:07.199Z,38.29
2022-07-25T16:15:54.196Z,38.38
2022-07-25T16:18:41.256Z,37.83
2022-07-25T16:21:28.311Z,38.32
2022-07-25T16:24:15.256Z,37.98
2022-07-25T16:27:02.203Z,37.92
2022-07-25T16:29:49.096Z,38.01
2022-07-25T16:32:36.085Z,38.47
2022-07-25T16:35:23.340Z,38.39
2022-07-25T16:38:10.298Z,38.40
2022-07-25T16:40:57.254Z,38.05
2022-07-25T16:43:44.221Z,38.10
2022-07-25T16:46:31.284Z,37.89
2022-07-25T16:49:18.352Z,38.06
2022-07-25T16:52:05.682Z,37.82
2022-07-25T16:54:53.384Z,37.72
2022-07-25T16:57:40.433Z,37.79
2022-07-25T17:00:27.568Z,38.14
2022-07-25T17:03:14.488Z,38.32
2022-07-25T17:06:01.567Z,38.26
2022-07-25T17:08:48.493Z,38.31
2022-07-25T17:11:35.597Z,38.30
2022-07-25T17:14:26.411Z,38.00
2022-07-25T17:17:16.871Z,38.16
2022-07-25T17:20:04.615Z,37.90
2022-07-25T17:22:51.604Z,38.30
2022-07-25T17:25:43.618Z,38.31
2022-07-25T17:28:33.098Z,38.30
2022-07-25T17:31:20.218Z,37.92
2022-07-25T17:34:08.275Z,38.01
2022-07-25T17:36:55.546Z,38.30
2022-07-25T17:39:42.629Z,38.45
2022-07-25T17:42:29.693Z,38.50
2022-07-25T17:45:16.846Z,38.55
2022-07-25T17:48:04.618Z,38.15
2022-07-25T17:50:52.550Z,38.54
2022-07-25T17:53:39.691Z,38.23
2022-07-25T17:56:26.634Z,38.00
2022-07-25T17:59:13.809Z,38.51
2022-07-25T18:02:02.798Z,37.99
2022-07-25T18:04:49.901Z,38.39
2022-07-25T18:07:36.927Z,38.21
2022-07-25T18:10:23.995Z,38.55
2022-07-25T18:13:11.000Z,38.01
2022-07-25T18:15:58.147Z,37.87
2022-07-25T18:18:45.174Z,38.30
2022-07-25T18:21:32.177Z,37.91
2022-07-25T18:24:19.412Z,38.08
2022-07-25T18:27:06.598Z,37.86
2022-07-25T18:29:53.531Z,38.40
2022-07-25T18:32:41.062Z,37.91
2022-07-25T18:35:28.113Z,37.71
2022-07-25T18:38:15.182Z,37.82
2022-07-25T18:41:27.645Z,38.19
2022-07-25T18:44:10.021Z,38.06
2022-07-25T18:46:58.742Z,38.05
2022-07-25T18:49:46.046Z,37.56
2022-07-25T18:52:36.278Z,37.98
2022-07-25T18:55:23.644Z,37.59
2022-07-25T18:58:15.700Z,37.87
2022-07-25T19:01:03.123Z,37.89
2022-07-25T19:03:50.257Z,37.95
2022-07-25T19:06:37.537Z,37.83
2022-07-25T19:09:25.895Z,37.41
2022-07-25T19:12:12.821Z,37.41
2022-07-25T19:14:59.818Z,37.37
2022-07-25T19:17:46.913Z,37.54
2022-07-25T19:20:33.890Z,37.67
2022-07-25T19:23:20.885Z,37.42
2022-07-25T19:26:08.147Z,37.49
2022-07-25T19:28:55.206Z,37.37
2022-07-25T19:31:42.931Z,37.74
2022-07-25T19:34:29.969Z,37.33
2022-07-25T19:37:16.986Z,37.61
2022-07-25T19:40:06.438Z,37.71
2022-07-25T19:42:53.386Z,37.21
2022-07-25T19:45:40.764Z,37.47
2022-07-25T19:48:27.803Z,37.54
2022-07-25T19:51:14.851Z,37.55
2022-07-25T19:54:03.952Z,37.66
2022-07-25T19:56:51.300Z,37.30
2022-07-25T19:59:38.312Z,37.76
2022-07-25T20:02:25.391Z,37.45
2022-07-25T20:05:12.478Z,37.76
2022-07-25T20:07:59.570Z,37.67
2022-07-25T20:10:47.393Z,37.66
2022-07-25T20:13:35.525Z,37.34
2022-07-25T20:16:22.630Z,37.73
2022-07-25T20:19:11.893Z,37.77
2022-07-25T20:21:59.977Z,37.50
2022-07-25T20:24:46.959Z,37.49
2022-07-25T20:27:34.335Z,37.52
2022-07-25T20:30:21.917Z,37.58
2022-07-25T20:33:09.841Z,37.93
2022-07-25T20:35:58.339Z,37.59
2022-07-25T20:38:45.298Z,37.59
2022-07-25T20:41:33.123Z,37.85
2022-07-25T20:44:20.262Z,37.83
2022-07-25T20:47:07.384Z,37.51
2022-07-25T20:49:54.379Z,37.79
2022-07-25T20:52:42.040Z,37.77
2022-07-25T20:55:30.431Z,37.66
2022-07-25T20:58:17.583Z,37.72
2022-07-25T21:01:04.893Z,37.96
2022-07-25T21:03:52.051Z,37.95
2022-07-25T21:06:39.004Z,37.91
2022-07-25T21:09:30.897Z,37.90
2022-07-25T21:12:19.513Z,37.98
2022-07-25T21:15:07.894Z,37.87
2022-07-25T21:17:54.857Z,37.88
2022-07-25T21:20:42.272Z,37.82
2022-07-25T21:23:29.400Z,38.01
2022-07-25T21:26:16.416Z,38.01
2022-07-25T21:29:03.333Z,37.79
2022-07-25T21:31:50.297Z,38.11
2022-07-25T21:34:37.342Z,37.88
2022-07-25T21:37:24.717Z,38.09
2022-07-25T21:40:11.813Z,37.94
2022-07-25T21:42:58.879Z,37.95
2022-07-25T21:45:46.627Z,38.06
2022-07-25T21:48:54.338Z,37.79
2022-07-25T21:51:41.540Z,37.98
2022-07-25T21:54:29.970Z,38.03
2022-07-25T21:57:17.404Z,37.90
2022-07-25T22:00:10.683Z,37.99
2022-07-25T22:02:57.837Z,38.23
2022-07-25T22:05:44.841Z,38.00
2022-07-25T22:08:31.823Z,38.00
2022-07-25T22:11:38.684Z,38.18
2022-07-25T22:14:26.064Z,38.25
2022-07-25T22:17:13.747Z,38.00
2022-07-25T22:20:01.457Z,38.32
2022-07-25T22:22:49.271Z,38.11
2022-07-25T22:25:36.297Z,38.23
2022-07-25T22:28:23.225Z,38.18
2022-07-25T22:31:10.149Z,38.20
2022-07-25T22:33:57.112Z,38.20
2022-07-25T22:36:44.172Z,38.24
2022-07-25T22:39:31.277Z,38.23
2022-07-25T22:42:18.197Z,38.13
2022-07-25T22:45:05.686Z,38.23
2022-07-25T22:47:52.793Z,38.23
2022-07-25T22:50:39.736Z,38.26
2022-07-25T22:53:26.853Z,38.47
2022-07-25T22:56:13.890Z,38.25
2022-07-25T22:59:00.880Z,38.55
2022-07-25T23:01:47.849Z,38.36
2022-07-25T23:04:34.906Z,38.38
2022-07-25T23:07:21.914Z,38.32
2022-07-25T23:10:09.526Z,38.48
2022-07-25T23:12:56.453Z,38.42
2022-07-25T23:15:49.875Z,38.38
2022-07-25T23:18:38.619Z,38.53
2022-07-25T23:21:26.145Z,38.61
2022-07-25T23:24:13.164Z,38.62
2022-07-25T23:27:01.251Z,38.45
2022-07-25T23:29:48.444Z,38.70
2022-07-25T23:32:35.417Z,38.65
2022-07-25T23:35:22.562Z,38.46
2022-07-25T23:38:09.455Z,38.70
2022-07-25T23:40:56.346Z,38.70
2022-07-25T23:43:56.453Z,38.55
2022-07-25T23:46:44.827Z,38.76
2022-07-25T23:49:31.772Z,38.75
2022-07-25T23:52:18.790Z,38.48
2022-07-25T23:55:07.082Z,38.78
2022-07-25T23:57:54.183Z,38.87
